sensor_id;sensor_type;location;lat;lon;timestamp;pressure;altitude;pressure_sealevel;temperature;humidity
78800;BME280;68148;55.328;86.106;2023-04-25T00:01:12;99585.56;;;-1.19;55.05
78800;BME280;68148;55.328;86.106;2023-04-25T00:03:39;99592.84;;;-1.24;54.02
78800;BME280;68148;55.328;86.106;2023-04-25T00:06:05;99559.50;;;-1.29;54.58
78800;BME280;68148;55.328;86.106;2023-04-25T00:08:31;99584.47;;;-1.16;54.31
78800;BME280;68148;55.328;86.106;2023-04-25T00:10:58;99600.19;;;-1.07;53.60
78800;BME280;68148;55.328;86.106;2023-04-25T00:13:24;99595.00;;;-0.95;52.97
78800;BME280;68148;55.328;86.106;2023-04-25T00:15:50;99630.19;;;-1.04;52.69
78800;BME280;68148;55.328;86.106;2023-04-25T00:18:16;99588.75;;;-1.15;53.31
78800;BME280;68148;55.328;86.106;2023-04-25T00:20:41;99632.41;;;-1.11;52.89
78800;BME280;68148;55.328;86.106;2023-04-25T00:23:08;99686.47;;;-1.06;52.05
78800;BME280;68148;55.328;86.106;2023-04-25T00:25:34;99692.69;;;-1.09;48.59
78800;BME280;68148;55.328;86.106;2023-04-25T00:27:59;99708.53;;;-0.89;46.70
78800;BME280;68148;55.328;86.106;2023-04-25T00:30:25;99723.47;;;-1.17;47.27
78800;BME280;68148;55.328;86.106;2023-04-25T00:32:51;99682.22;;;-0.96;46.14
78800;BME280;68148;55.328;86.106;2023-04-25T00:35:17;99704.47;;;-1.05;46.76
78800;BME280;68148;55.328;86.106;2023-04-25T00:37:43;99691.16;;;-1.11;46.75
78800;BME280;68148;55.328;86.106;2023-04-25T00:40:09;99638.28;;;-1.09;47.92
78800;BME280;68148;55.328;86.106;2023-04-25T00:42:37;99643.22;;;-1.17;47.02
78800;BME280;68148;55.328;86.106;2023-04-25T00:45:05;99704.31;;;-1.14;47.55
78800;BME280;68148;55.328;86.106;2023-04-25T00:47:31;99707.72;;;-1.14;46.29
78800;BME280;68148;55.328;86.106;2023-04-25T00:49:58;99704.94;;;-1.11;47.22
78800;BME280;68148;55.328;86.106;2023-04-25T00:52:26;99673.41;;;-0.93;45.21
78800;BME280;68148;55.328;86.106;2023-04-25T00:54:52;99708.25;;;-0.97;46.14
78800;BME280;68148;55.328;86.106;2023-04-25T00:57:21;99714.06;;;-0.83;45.82
78800;BME280;68148;55.328;86.106;2023-04-25T00:59:47;99722.63;;;-0.93;45.87
78800;BME280;68148;55.328;86.106;2023-04-25T01:02:17;99735.19;;;-1.00;46.11
78800;BME280;68148;55.328;86.106;2023-04-25T01:04:44;99737.09;;;-0.91;46.12
78800;BME280;68148;55.328;86.106;2023-04-25T01:07:10;99753.66;;;-0.81;45.99
78800;BME280;68148;55.328;86.106;2023-04-25T01:09:36;99745.41;;;-0.74;45.83
78800;BME280;68148;55.328;86.106;2023-04-25T01:12:02;99761.72;;;-0.96;46.41
78800;BME280;68148;55.328;86.106;2023-04-25T01:14:28;99778.94;;;-0.84;45.61
78800;BME280;68148;55.328;86.106;2023-04-25T01:16:54;99757.56;;;-0.99;46.17
78800;BME280;68148;55.328;86.106;2023-04-25T01:19:20;99787.66;;;-0.85;46.04
78800;BME280;68148;55.328;86.106;2023-04-25T01:21:46;99793.41;;;-0.58;45.52
78800;BME280;68148;55.328;86.106;2023-04-25T01:24:12;99767.09;;;-0.76;45.39
78800;BME280;68148;55.328;86.106;2023-04-25T01:26:41;99806.00;;;-0.53;45.74
78800;BME280;68148;55.328;86.106;2023-04-25T01:29:07;99792.78;;;-0.72;44.67
78800;BME280;68148;55.328;86.106;2023-04-25T01:31:34;99788.22;;;-0.58;44.80
78800;BME280;68148;55.328;86.106;2023-04-25T01:34:01;99807.66;;;-0.63;44.49
78800;BME280;68148;55.328;86.106;2023-04-25T01:36:26;99797.00;;;-0.71;44.24
78800;BME280;68148;55.328;86.106;2023-04-25T01:38:53;99792.25;;;-0.78;44.22
78800;BME280;68148;55.328;86.106;2023-04-25T01:41:19;99802.69;;;-0.66;44.38
78800;BME280;68148;55.328;86.106;2023-04-25T01:43:45;99825.66;;;-0.62;44.33
78800;BME280;68148;55.328;86.106;2023-04-25T01:46:11;99803.34;;;-0.76;44.84
78800;BME280;68148;55.328;86.106;2023-04-25T01:48:38;99777.47;;;-0.64;43.92
78800;BME280;68148;55.328;86.106;2023-04-25T01:51:04;99828.06;;;-0.47;43.42
78800;BME280;68148;55.328;86.106;2023-04-25T01:53:30;99837.78;;;-0.38;43.71
78800;BME280;68148;55.328;86.106;2023-04-25T01:55:56;99841.88;;;-0.36;42.60
78800;BME280;68148;55.328;86.106;2023-04-25T01:58:21;99861.25;;;-0.17;42.20
78800;BME280;68148;55.328;86.106;2023-04-25T02:00:47;99847.59;;;-0.19;41.92
78800;BME280;68148;55.328;86.106;2023-04-25T02:03:13;99718.41;;;-0.26;41.89
78800;BME280;68148;55.328;86.106;2023-04-25T02:05:39;99845.69;;;-0.17;41.64
78800;BME280;68148;55.328;86.106;2023-04-25T02:08:06;99802.66;;;-0.31;42.63
78800;BME280;68148;55.328;86.106;2023-04-25T02:10:34;99808.66;;;-0.42;42.30
78800;BME280;68148;55.328;86.106;2023-04-25T02:13:00;99775.25;;;-0.58;42.63
78800;BME280;68148;55.328;86.106;2023-04-25T02:15:26;99871.09;;;-0.45;41.99
78800;BME280;68148;55.328;86.106;2023-04-25T02:17:52;99862.88;;;-0.63;41.45
78800;BME280;68148;55.328;86.106;2023-04-25T02:20:20;99879.13;;;-0.37;41.58
78800;BME280;68148;55.328;86.106;2023-04-25T02:22:47;99846.97;;;-0.34;42.41
78800;BME280;68148;55.328;86.106;2023-04-25T02:25:13;99897.84;;;-0.44;40.47
78800;BME280;68148;55.328;86.106;2023-04-25T02:27:39;99838.34;;;-0.35;40.37
78800;BME280;68148;55.328;86.106;2023-04-25T02:30:06;99917.81;;;-0.34;39.70
78800;BME280;68148;55.328;86.106;2023-04-25T02:32:32;99907.69;;;-0.26;39.85
78800;BME280;68148;55.328;86.106;2023-04-25T02:34:58;99921.81;;;-0.30;40.22
78800;BME280;68148;55.328;86.106;2023-04-25T02:37:24;99926.81;;;-0.15;39.79
78800;BME280;68148;55.328;86.106;2023-04-25T02:39:50;99890.03;;;-0.09;40.38
78800;BME280;68148;55.328;86.106;2023-04-25T02:42:16;99958.63;;;0.11;39.54
78800;BME280;68148;55.328;86.106;2023-04-25T02:44:42;99953.13;;;-0.09;40.73
78800;BME280;68148;55.328;86.106;2023-04-25T02:47:08;99928.72;;;-0.06;40.81
78800;BME280;68148;55.328;86.106;2023-04-25T02:49:34;99876.41;;;0.00;40.12
78800;BME280;68148;55.328;86.106;2023-04-25T02:52:00;99959.84;;;-0.06;39.70
78800;BME280;68148;55.328;86.106;2023-04-25T02:54:25;99934.03;;;-0.08;39.85
78800;BME280;68148;55.328;86.106;2023-04-25T02:56:51;99964.75;;;0.10;39.71
78800;BME280;68148;55.328;86.106;2023-04-25T02:59:17;99979.41;;;-0.13;39.97
78800;BME280;68148;55.328;86.106;2023-04-25T03:01:43;99969.88;;;-0.13;40.16
78800;BME280;68148;55.328;86.106;2023-04-25T03:04:09;99975.53;;;-0.08;39.72
78800;BME280;68148;55.328;86.106;2023-04-25T03:06:35;99913.50;;;-0.11;40.27
78800;BME280;68148;55.328;86.106;2023-04-25T03:09:01;99979.44;;;-0.02;39.48
78800;BME280;68148;55.328;86.106;2023-04-25T03:11:27;99976.78;;;0.11;37.72
78800;BME280;68148;55.328;86.106;2023-04-25T03:13:53;99995.59;;;0.37;37.38
78800;BME280;68148;55.328;86.106;2023-04-25T03:16:19;99969.41;;;0.40;36.15
78800;BME280;68148;55.328;86.106;2023-04-25T03:18:45;99962.78;;;0.24;35.40
78800;BME280;68148;55.328;86.106;2023-04-25T03:21:11;99990.41;;;0.37;36.67
78800;BME280;68148;55.328;86.106;2023-04-25T03:23:37;99975.91;;;0.45;35.85
78800;BME280;68148;55.328;86.106;2023-04-25T03:26:02;100020.38;;;0.41;36.69
78800;BME280;68148;55.328;86.106;2023-04-25T03:28:28;99996.34;;;0.39;36.54
78800;BME280;68148;55.328;86.106;2023-04-25T03:30:55;99965.34;;;0.13;35.83
78800;BME280;68148;55.328;86.106;2023-04-25T03:33:21;100019.69;;;0.39;37.02
78800;BME280;68148;55.328;86.106;2023-04-25T03:35:47;100026.09;;;0.68;36.38
78800;BME280;68148;55.328;86.106;2023-04-25T03:38:13;100025.50;;;0.54;36.07
78800;BME280;68148;55.328;86.106;2023-04-25T03:40:39;100005.94;;;0.61;35.56
78800;BME280;68148;55.328;86.106;2023-04-25T03:43:04;99999.44;;;0.78;35.75
78800;BME280;68148;55.328;86.106;2023-04-25T03:45:30;99979.25;;;0.70;36.20
78800;BME280;68148;55.328;86.106;2023-04-25T03:47:58;100023.88;;;0.75;35.49
78800;BME280;68148;55.328;86.106;2023-04-25T03:50:23;100040.75;;;0.69;35.33
78800;BME280;68148;55.328;86.106;2023-04-25T03:52:49;100034.97;;;0.77;36.69
78800;BME280;68148;55.328;86.106;2023-04-25T03:55:15;100025.66;;;0.97;36.46
78800;BME280;68148;55.328;86.106;2023-04-25T03:57:41;100010.78;;;0.99;37.81
78800;BME280;68148;55.328;86.106;2023-04-25T04:00:07;100033.13;;;1.13;37.29
78800;BME280;68148;55.328;86.106;2023-04-25T04:02:34;100031.59;;;0.99;37.89
78800;BME280;68148;55.328;86.106;2023-04-25T04:05:00;100058.53;;;1.20;37.31
78800;BME280;68148;55.328;86.106;2023-04-25T04:07:25;100075.88;;;1.31;35.95
78800;BME280;68148;55.328;86.106;2023-04-25T04:09:51;100072.91;;;1.36;34.12
78800;BME280;68148;55.328;86.106;2023-04-25T04:12:17;100066.06;;;1.23;33.73
78800;BME280;68148;55.328;86.106;2023-04-25T04:14:43;100095.00;;;1.53;34.37
78800;BME280;68148;55.328;86.106;2023-04-25T04:17:09;100069.13;;;1.40;32.83
78800;BME280;68148;55.328;86.106;2023-04-25T04:19:34;100090.53;;;1.43;32.98
78800;BME280;68148;55.328;86.106;2023-04-25T04:22:00;100119.50;;;1.39;32.80
78800;BME280;68148;55.328;86.106;2023-04-25T04:24:26;100084.03;;;1.49;32.10
78800;BME280;68148;55.328;86.106;2023-04-25T04:26:51;100066.31;;;1.43;31.84
78800;BME280;68148;55.328;86.106;2023-04-25T04:29:17;100045.00;;;1.49;31.23
78800;BME280;68148;55.328;86.106;2023-04-25T04:31:43;100120.78;;;1.67;31.53
78800;BME280;68148;55.328;86.106;2023-04-25T04:34:09;100104.69;;;1.62;32.47
78800;BME280;68148;55.328;86.106;2023-04-25T04:36:35;100171.97;;;1.66;31.95
78800;BME280;68148;55.328;86.106;2023-04-25T04:39:00;100121.81;;;1.75;32.15
78800;BME280;68148;55.328;86.106;2023-04-25T04:41:27;99943.75;;;1.68;32.08
78800;BME280;68148;55.328;86.106;2023-04-25T04:43:53;100086.16;;;1.55;32.55
78800;BME280;68148;55.328;86.106;2023-04-25T04:46:19;100143.31;;;2.00;32.00
78800;BME280;68148;55.328;86.106;2023-04-25T04:48:44;100130.97;;;2.24;31.69
78800;BME280;68148;55.328;86.106;2023-04-25T04:51:10;100071.97;;;2.03;31.30
78800;BME280;68148;55.328;86.106;2023-04-25T04:53:36;100144.00;;;2.13;29.85
78800;BME280;68148;55.328;86.106;2023-04-25T04:56:02;100163.41;;;2.20;30.26
78800;BME280;68148;55.328;86.106;2023-04-25T04:58:27;100132.66;;;2.14;30.08
78800;BME280;68148;55.328;86.106;2023-04-25T05:00:53;100143.97;;;2.24;30.52
78800;BME280;68148;55.328;86.106;2023-04-25T05:03:19;100103.75;;;2.17;31.90
78800;BME280;68148;55.328;86.106;2023-04-25T05:05:45;100147.69;;;2.11;31.08
78800;BME280;68148;55.328;86.106;2023-04-25T05:08:11;100141.41;;;2.13;31.89
78800;BME280;68148;55.328;86.106;2023-04-25T05:10:37;100148.16;;;2.05;31.30
78800;BME280;68148;55.328;86.106;2023-04-25T05:13:02;100147.03;;;2.30;31.47
78800;BME280;68148;55.328;86.106;2023-04-25T05:15:28;100155.34;;;2.23;31.58
78800;BME280;68148;55.328;86.106;2023-04-25T05:17:54;100157.31;;;2.31;30.98
78800;BME280;68148;55.328;86.106;2023-04-25T05:20:20;100112.75;;;2.13;31.94
78800;BME280;68148;55.328;86.106;2023-04-25T05:22:45;100146.59;;;2.13;32.28
78800;BME280;68148;55.328;86.106;2023-04-25T05:25:11;100167.69;;;2.10;32.22
78800;BME280;68148;55.328;86.106;2023-04-25T05:27:38;100135.75;;;2.08;31.34
78800;BME280;68148;55.328;86.106;2023-04-25T05:30:04;100180.41;;;2.36;32.23
78800;BME280;68148;55.328;86.106;2023-04-25T05:32:30;100178.16;;;2.31;31.69
78800;BME280;68148;55.328;86.106;2023-04-25T05:34:55;100187.56;;;2.11;31.15
78800;BME280;68148;55.328;86.106;2023-04-25T05:37:21;100180.22;;;2.16;30.42
78800;BME280;68148;55.328;86.106;2023-04-25T05:39:47;100183.66;;;2.17;30.69
78800;BME280;68148;55.328;86.106;2023-04-25T05:42:13;100163.13;;;2.35;30.84
78800;BME280;68148;55.328;86.106;2023-04-25T05:44:39;100188.25;;;2.36;30.25
78800;BME280;68148;55.328;86.106;2023-04-25T05:47:05;100178.78;;;2.23;30.72
78800;BME280;68148;55.328;86.106;2023-04-25T05:49:30;100204.41;;;2.39;29.47
78800;BME280;68148;55.328;86.106;2023-04-25T05:51:56;100150.16;;;2.12;30.39
78800;BME280;68148;55.328;86.106;2023-04-25T05:54:22;100203.06;;;2.24;29.16
78800;BME280;68148;55.328;86.106;2023-04-25T05:56:48;100197.19;;;2.54;28.34
78800;BME280;68148;55.328;86.106;2023-04-25T05:59:14;100192.56;;;2.58;29.36
78800;BME280;68148;55.328;86.106;2023-04-25T06:01:40;100133.84;;;2.74;29.51
78800;BME280;68148;55.328;86.106;2023-04-25T06:04:05;100196.63;;;2.71;29.44
78800;BME280;68148;55.328;86.106;2023-04-25T06:06:31;100213.97;;;2.61;30.23
78800;BME280;68148;55.328;86.106;2023-04-25T06:08:57;100222.19;;;2.78;28.71
78800;BME280;68148;55.328;86.106;2023-04-25T06:11:23;100228.50;;;2.75;28.31
78800;BME280;68148;55.328;86.106;2023-04-25T06:13:48;100192.66;;;2.56;27.91
78800;BME280;68148;55.328;86.106;2023-04-25T06:16:14;100201.13;;;2.69;28.28
78800;BME280;68148;55.328;86.106;2023-04-25T06:18:40;100192.38;;;2.70;27.27
78800;BME280;68148;55.328;86.106;2023-04-25T06:21:06;100192.44;;;2.80;28.90
78800;BME280;68148;55.328;86.106;2023-04-25T06:23:31;100213.31;;;2.80;29.15
78800;BME280;68148;55.328;86.106;2023-04-25T06:25:57;100201.06;;;2.92;29.15
78800;BME280;68148;55.328;86.106;2023-04-25T06:28:23;100223.75;;;3.01;29.20
78800;BME280;68148;55.328;86.106;2023-04-25T06:30:49;100181.78;;;2.83;29.48
78800;BME280;68148;55.328;86.106;2023-04-25T06:33:15;100170.00;;;2.68;29.89
78800;BME280;68148;55.328;86.106;2023-04-25T06:35:41;100199.53;;;2.89;27.86
78800;BME280;68148;55.328;86.106;2023-04-25T06:38:06;100192.16;;;3.15;28.33
78800;BME280;68148;55.328;86.106;2023-04-25T06:40:32;100202.91;;;3.22;28.91
78800;BME280;68148;55.328;86.106;2023-04-25T06:42:58;100159.84;;;3.28;28.40
78800;BME280;68148;55.328;86.106;2023-04-25T06:45:24;100206.81;;;3.58;27.56
78800;BME280;68148;55.328;86.106;2023-04-25T06:47:49;100155.75;;;3.65;28.35
78800;BME280;68148;55.328;86.106;2023-04-25T06:50:15;100205.34;;;3.65;27.73
78800;BME280;68148;55.328;86.106;2023-04-25T06:52:41;100144.63;;;3.63;27.61
78800;BME280;68148;55.328;86.106;2023-04-25T06:55:07;100188.31;;;3.61;28.05
78800;BME280;68148;55.328;86.106;2023-04-25T06:57:34;100192.63;;;3.51;28.76
78800;BME280;68148;55.328;86.106;2023-04-25T07:00:00;100193.53;;;3.40;28.31
78800;BME280;68148;55.328;86.106;2023-04-25T07:02:25;100156.69;;;3.34;29.24
78800;BME280;68148;55.328;86.106;2023-04-25T07:04:51;100218.44;;;3.23;29.59
78800;BME280;68148;55.328;86.106;2023-04-25T07:07:17;100215.97;;;3.73;29.07
78800;BME280;68148;55.328;86.106;2023-04-25T07:09:43;100178.09;;;3.89;29.08
78800;BME280;68148;55.328;86.106;2023-04-25T07:12:09;100187.06;;;3.96;28.85
78800;BME280;68148;55.328;86.106;2023-04-25T07:14:35;100228.69;;;3.97;28.53
78800;BME280;68148;55.328;86.106;2023-04-25T07:17:01;100223.44;;;3.57;29.11
78800;BME280;68148;55.328;86.106;2023-04-25T07:19:26;100191.72;;;3.31;29.74
78800;BME280;68148;55.328;86.106;2023-04-25T07:21:53;100248.53;;;3.28;31.10
78800;BME280;68148;55.328;86.106;2023-04-25T07:24:18;100262.75;;;2.59;34.60
78800;BME280;68148;55.328;86.106;2023-04-25T07:26:45;100250.06;;;2.11;42.22
78800;BME280;68148;55.328;86.106;2023-04-25T07:29:10;100262.34;;;1.87;40.90
78800;BME280;68148;55.328;86.106;2023-04-25T07:31:36;100253.34;;;1.91;40.10
78800;BME280;68148;55.328;86.106;2023-04-25T07:34:02;100258.31;;;1.60;46.41
78800;BME280;68148;55.328;86.106;2023-04-25T07:36:28;100263.94;;;1.54;46.36
78800;BME280;68148;55.328;86.106;2023-04-25T07:38:53;100299.44;;;1.20;47.95
78800;BME280;68148;55.328;86.106;2023-04-25T07:41:19;100306.66;;;1.52;48.77
78800;BME280;68148;55.328;86.106;2023-04-25T07:43:45;100309.47;;;1.48;49.25
78800;BME280;68148;55.328;86.106;2023-04-25T07:46:11;100297.28;;;1.49;50.42
78800;BME280;68148;55.328;86.106;2023-04-25T07:48:36;100301.25;;;1.88;48.99
78800;BME280;68148;55.328;86.106;2023-04-25T07:51:02;100276.91;;;2.12;46.83
78800;BME280;68148;55.328;86.106;2023-04-25T07:53:28;100278.94;;;2.19;46.85
78800;BME280;68148;55.328;86.106;2023-04-25T07:55:54;100264.00;;;2.21;45.48
78800;BME280;68148;55.328;86.106;2023-04-25T07:58:19;100241.72;;;2.40;40.63
78800;BME280;68148;55.328;86.106;2023-04-25T08:00:45;100247.03;;;2.49;40.62
78800;BME280;68148;55.328;86.106;2023-04-25T08:03:11;100281.34;;;2.66;39.71
78800;BME280;68148;55.328;86.106;2023-04-25T08:05:37;100264.09;;;2.86;39.98
78800;BME280;68148;55.328;86.106;2023-04-25T08:08:03;100327.63;;;2.85;36.24
78800;BME280;68148;55.328;86.106;2023-04-25T08:10:28;100306.06;;;3.15;35.30
78800;BME280;68148;55.328;86.106;2023-04-25T08:12:54;100253.47;;;3.10;35.80
78800;BME280;68148;55.328;86.106;2023-04-25T08:15:20;100314.50;;;2.64;39.97
78800;BME280;68148;55.328;86.106;2023-04-25T08:17:48;100297.59;;;1.91;46.62
78800;BME280;68148;55.328;86.106;2023-04-25T08:20:14;100289.97;;;1.54;51.54
78800;BME280;68148;55.328;86.106;2023-04-25T08:22:40;100328.13;;;1.07;53.97
78800;BME280;68148;55.328;86.106;2023-04-25T08:25:06;100311.59;;;1.19;56.08
78800;BME280;68148;55.328;86.106;2023-04-25T08:27:31;100296.19;;;1.40;53.80
78800;BME280;68148;55.328;86.106;2023-04-25T08:29:57;100308.75;;;1.46;53.95
78800;BME280;68148;55.328;86.106;2023-04-25T08:32:23;100298.19;;;1.94;51.21
78800;BME280;68148;55.328;86.106;2023-04-25T08:34:49;100307.22;;;2.24;49.11
78800;BME280;68148;55.328;86.106;2023-04-25T08:37:14;100298.91;;;2.30;49.29
78800;BME280;68148;55.328;86.106;2023-04-25T08:39:40;100294.16;;;2.58;47.23
78800;BME280;68148;55.328;86.106;2023-04-25T08:42:06;100306.34;;;2.57;46.21
78800;BME280;68148;55.328;86.106;2023-04-25T08:44:33;100306.47;;;2.99;41.15
78800;BME280;68148;55.328;86.106;2023-04-25T08:47:00;100307.78;;;2.61;42.84
78800;BME280;68148;55.328;86.106;2023-04-25T08:49:27;100306.97;;;2.93;42.56
78800;BME280;68148;55.328;86.106;2023-04-25T08:51:56;100306.00;;;3.05;43.13
78800;BME280;68148;55.328;86.106;2023-04-25T08:54:25;100307.91;;;3.35;41.89
78800;BME280;68148;55.328;86.106;2023-04-25T08:56:52;100284.53;;;3.34;41.15
78800;BME280;68148;55.328;86.106;2023-04-25T08:59:19;100306.59;;;3.30;41.88
78800;BME280;68148;55.328;86.106;2023-04-25T09:01:45;100283.25;;;3.28;41.96
78800;BME280;68148;55.328;86.106;2023-04-25T09:04:12;100312.91;;;3.27;40.57
78800;BME280;68148;55.328;86.106;2023-04-25T09:06:38;100308.56;;;3.37;39.35
78800;BME280;68148;55.328;86.106;2023-04-25T09:09:05;100325.06;;;3.59;38.00
78800;BME280;68148;55.328;86.106;2023-04-25T09:11:33;100284.03;;;3.82;36.42
78800;BME280;68148;55.328;86.106;2023-04-25T09:14:13;100288.28;;;4.13;35.61
78800;BME280;68148;55.328;86.106;2023-04-25T09:19:30;100285.53;;;3.63;36.18
78800;BME280;68148;55.328;86.106;2023-04-25T09:21:59;100323.38;;;3.48;37.00
78800;BME280;68148;55.328;86.106;2023-04-25T09:24:39;100326.22;;;3.66;37.68
78800;BME280;68148;55.328;86.106;2023-04-25T09:27:06;100308.78;;;3.87;37.61
78800;BME280;68148;55.328;86.106;2023-04-25T09:29:34;100304.84;;;3.30;38.82
78800;BME280;68148;55.328;86.106;2023-04-25T09:32:10;100312.69;;;3.19;39.43
78800;BME280;68148;55.328;86.106;2023-04-25T09:34:44;100322.13;;;2.99;39.52
78800;BME280;68148;55.328;86.106;2023-04-25T09:37:10;100330.50;;;2.70;39.17
78800;BME280;68148;55.328;86.106;2023-04-25T09:39:39;100325.84;;;2.74;40.17
78800;BME280;68148;55.328;86.106;2023-04-25T09:42:05;100345.31;;;2.59;41.22
78800;BME280;68148;55.328;86.106;2023-04-25T09:44:31;100343.19;;;2.30;43.04
78800;BME280;68148;55.328;86.106;2023-04-25T09:46:57;100376.22;;;2.52;43.63
78800;BME280;68148;55.328;86.106;2023-04-25T09:49:25;100373.28;;;2.45;44.30
78800;BME280;68148;55.328;86.106;2023-04-25T09:51:58;100368.97;;;2.78;44.86
78800;BME280;68148;55.328;86.106;2023-04-25T09:54:27;100366.84;;;2.83;44.39
78800;BME280;68148;55.328;86.106;2023-04-25T09:56:53;100377.53;;;3.12;44.91
78800;BME280;68148;55.328;86.106;2023-04-25T09:59:20;100362.22;;;2.75;45.37
78800;BME280;68148;55.328;86.106;2023-04-25T10:01:48;100354.88;;;2.81;44.73
78800;BME280;68148;55.328;86.106;2023-04-25T10:04:24;100347.78;;;2.60;45.56
78800;BME280;68148;55.328;86.106;2023-04-25T10:06:52;100350.75;;;2.56;44.01
78800;BME280;68148;55.328;86.106;2023-04-25T10:09:29;100360.59;;;2.52;43.70
78800;BME280;68148;55.328;86.106;2023-04-25T10:11:57;100350.88;;;2.43;43.69
78800;BME280;68148;55.328;86.106;2023-04-25T10:14:24;100337.84;;;2.43;44.34
78800;BME280;68148;55.328;86.106;2023-04-25T10:16:50;100365.00;;;2.40;44.82
78800;BME280;68148;55.328;86.106;2023-04-25T10:19:16;100365.56;;;2.33;44.81
78800;BME280;68148;55.328;86.106;2023-04-25T10:21:58;100363.31;;;2.28;45.13
78800;BME280;68148;55.328;86.106;2023-04-25T10:24:28;100368.88;;;2.46;44.90
78800;BME280;68148;55.328;86.106;2023-04-25T10:26:53;100392.19;;;2.47;45.27
78800;BME280;68148;55.328;86.106;2023-04-25T10:29:24;100408.44;;;2.51;45.21
78800;BME280;68148;55.328;86.106;2023-04-25T10:31:50;100438.03;;;1.92;47.72
78800;BME280;68148;55.328;86.106;2023-04-25T10:34:17;100441.69;;;1.90;50.05
78800;BME280;68148;55.328;86.106;2023-04-25T10:36:50;100422.88;;;1.51;55.66
78800;BME280;68148;55.328;86.106;2023-04-25T10:39:22;100422.84;;;1.27;60.32
78800;BME280;68148;55.328;86.106;2023-04-25T10:41:58;100423.06;;;1.48;60.78
78800;BME280;68148;55.328;86.106;2023-04-25T10:44:28;100411.13;;;1.21;63.79
78800;BME280;68148;55.328;86.106;2023-04-25T10:46:58;100432.00;;;1.20;62.75
78800;BME280;68148;55.328;86.106;2023-04-25T10:49:35;100419.41;;;1.27;62.61
78800;BME280;68148;55.328;86.106;2023-04-25T10:52:30;100402.44;;;1.34;62.65
78800;BME280;68148;55.328;86.106;2023-04-25T10:54:58;100390.97;;;1.60;61.76
78800;BME280;68148;55.328;86.106;2023-04-25T10:57:38;100385.66;;;1.62;63.26
78800;BME280;68148;55.328;86.106;2023-04-25T11:00:05;100383.91;;;1.73;60.72
78800;BME280;68148;55.328;86.106;2023-04-25T11:02:36;100379.66;;;1.72;60.04
78800;BME280;68148;55.328;86.106;2023-04-25T11:05:02;100376.16;;;1.85;58.07
78800;BME280;68148;55.328;86.106;2023-04-25T11:10:02;100372.91;;;1.70;58.07
78800;BME280;68148;55.328;86.106;2023-04-25T11:12:30;100376.59;;;1.79;57.23
78800;BME280;68148;55.328;86.106;2023-04-25T11:15:14;100371.78;;;1.85;56.18
78800;BME280;68148;55.328;86.106;2023-04-25T11:17:40;100393.97;;;1.78;55.37
78800;BME280;68148;55.328;86.106;2023-04-25T11:20:07;100397.19;;;1.82;55.55
78800;BME280;68148;55.328;86.106;2023-04-25T11:22:33;100388.16;;;1.74;55.63
78800;BME280;68148;55.328;86.106;2023-04-25T11:25:04;100382.84;;;2.11;55.59
78800;BME280;68148;55.328;86.106;2023-04-25T11:27:30;100360.25;;;1.65;56.10
78800;BME280;68148;55.328;86.106;2023-04-25T11:29:56;100367.69;;;1.59;56.86
78800;BME280;68148;55.328;86.106;2023-04-25T11:32:22;100360.88;;;1.80;56.84
78800;BME280;68148;55.328;86.106;2023-04-25T11:34:49;100358.91;;;2.17;55.57
78800;BME280;68148;55.328;86.106;2023-04-25T11:37:15;100356.06;;;2.09;54.93
78800;BME280;68148;55.328;86.106;2023-04-25T11:39:44;100348.88;;;2.24;53.07
78800;BME280;68148;55.328;86.106;2023-04-25T11:42:10;100341.78;;;2.37;53.33
78800;BME280;68148;55.328;86.106;2023-04-25T11:44:38;100343.06;;;2.54;52.65
78800;BME280;68148;55.328;86.106;2023-04-25T11:47:04;100340.00;;;2.49;52.72
78800;BME280;68148;55.328;86.106;2023-04-25T11:49:31;100330.03;;;2.43;53.66
78800;BME280;68148;55.328;86.106;2023-04-25T11:51:56;100332.41;;;2.57;51.60
78800;BME280;68148;55.328;86.106;2023-04-25T11:54:22;100329.09;;;2.66;50.17
78800;BME280;68148;55.328;86.106;2023-04-25T11:56:48;100326.34;;;2.68;47.65
78800;BME280;68148;55.328;86.106;2023-04-25T11:59:14;100325.97;;;2.72;48.20
78800;BME280;68148;55.328;86.106;2023-04-25T12:01:47;100321.81;;;2.92;47.83
78800;BME280;68148;55.328;86.106;2023-04-25T12:04:15;100315.97;;;3.00;46.93
78800;BME280;68148;55.328;86.106;2023-04-25T12:06:43;100325.69;;;2.98;44.44
78800;BME280;68148;55.328;86.106;2023-04-25T12:09:11;100317.88;;;2.98;46.89
78800;BME280;68148;55.328;86.106;2023-04-25T12:11:48;100321.28;;;3.10;45.19
78800;BME280;68148;55.328;86.106;2023-04-25T12:14:23;100308.81;;;3.13;44.67
78800;BME280;68148;55.328;86.106;2023-04-25T12:16:49;100310.25;;;3.06;44.01
78800;BME280;68148;55.328;86.106;2023-04-25T12:19:17;100311.31;;;3.04;45.19
78800;BME280;68148;55.328;86.106;2023-04-25T12:21:44;100315.03;;;3.01;44.21
78800;BME280;68148;55.328;86.106;2023-04-25T12:24:13;100318.81;;;2.97;43.97
78800;BME280;68148;55.328;86.106;2023-04-25T12:29:22;100320.00;;;2.93;42.25
78800;BME280;68148;55.328;86.106;2023-04-25T12:31:49;100344.06;;;2.96;40.59
78800;BME280;68148;55.328;86.106;2023-04-25T12:34:16;100339.75;;;3.07;40.14
78800;BME280;68148;55.328;86.106;2023-04-25T12:36:41;100334.84;;;3.24;39.33
78800;BME280;68148;55.328;86.106;2023-04-25T12:39:07;100329.28;;;3.50;39.45
78800;BME280;68148;55.328;86.106;2023-04-25T12:41:33;100331.94;;;3.81;39.33
78800;BME280;68148;55.328;86.106;2023-04-25T12:43:59;100320.44;;;4.14;39.29
78800;BME280;68148;55.328;86.106;2023-04-25T12:46:25;100324.19;;;3.90;37.43
78800;BME280;68148;55.328;86.106;2023-04-25T12:48:52;100321.25;;;3.84;38.51
78800;BME280;68148;55.328;86.106;2023-04-25T12:51:19;100324.78;;;3.73;37.99
78800;BME280;68148;55.328;86.106;2023-04-25T12:53:45;100330.63;;;3.44;37.41
78800;BME280;68148;55.328;86.106;2023-04-25T12:56:10;100331.31;;;3.25;37.17